createdAt,value
2019-05-18T00:00:55.144Z,99.99
2019-05-18T00:01:55.143Z,99.99
2019-05-18T00:02:55.157Z,99.99
2019-05-18T00:03:55.211Z,99.99
2019-05-18T00:06:10.974Z,99.99
2019-05-18T00:07:01.720Z,99.99
2019-05-18T00:08:01.711Z,99.99
2019-05-18T00:09:01.818Z,99.99
2019-05-18T00:10:01.720Z,99.99
2019-05-18T00:11:01.724Z,99.99
2019-05-18T00:12:01.794Z,99.99
2019-05-18T00:13:01.716Z,99.99
2019-05-18T00:14:01.715Z,99.99
2019-05-18T00:15:01.722Z,99.99
2019-05-18T00:16:01.697Z,99.99
2019-05-18T00:17:01.839Z,99.99
2019-05-18T00:18:01.739Z,99.99
2019-05-18T00:19:01.759Z,99.99
2019-05-18T00:20:03.304Z,99.99
2019-05-18T00:27:27.362Z,99.99
2019-05-18T00:27:38.395Z,99.99
2019-05-18T00:28:38.376Z,99.99
2019-05-18T00:29:38.375Z,99.99
2019-05-18T00:30:38.407Z,99.99
2019-05-18T00:31:38.356Z,99.99
2019-05-18T00:32:38.359Z,99.99
2019-05-18T00:33:38.391Z,99.99
2019-05-18T00:34:38.374Z,99.99
2019-05-18T00:35:38.387Z,99.99
2019-05-18T00:36:38.374Z,99.99
2019-05-18T00:37:38.383Z,99.99
2019-05-18T00:38:38.361Z,99.99
2019-05-18T00:39:38.388Z,99.99
2019-05-18T00:40:54.126Z,99.99
2019-05-18T00:41:54.160Z,99.99
2019-05-18T00:42:54.117Z,99.99
2019-05-18T00:43:54.126Z,99.99
2019-05-18T00:44:54.194Z,99.99
2019-05-18T00:45:54.120Z,99.99
2019-05-18T00:46:54.123Z,99.99
2019-05-18T00:47:54.171Z,99.99
2019-05-18T00:48:54.096Z,99.99
2019-05-18T00:49:54.514Z,99.99
2019-05-18T00:50:54.111Z,99.99
2019-05-18T00:51:54.114Z,99.99
2019-05-18T00:52:54.103Z,99.99
2019-05-18T00:53:54.136Z,99.99
2019-05-18T00:54:54.127Z,99.99
2019-05-18T00:55:54.491Z,99.99
2019-05-18T00:56:54.110Z,99.99
2019-05-18T00:57:54.162Z,99.99
2019-05-18T00:58:54.120Z,99.99
2019-05-18T00:59:54.154Z,99.99
2019-05-18T01:00:54.115Z,99.99
2019-05-18T01:01:54.168Z,99.99
2019-05-18T01:02:54.147Z,99.99
2019-05-18T01:03:54.156Z,99.99
2019-05-18T01:04:54.158Z,99.99
2019-05-18T01:05:54.169Z,99.99
2019-05-18T01:06:54.134Z,99.99
2019-05-18T01:07:54.571Z,99.99
2019-05-18T01:08:54.158Z,99.99
2019-05-18T01:09:54.180Z,99.99
2019-05-18T01:10:54.141Z,99.99
2019-05-18T01:11:54.146Z,99.99
2019-05-18T01:12:57.860Z,99.99
2019-05-18T01:13:54.158Z,99.99
2019-05-18T01:14:54.154Z,99.99
2019-05-18T01:15:54.130Z,99.99
2019-05-18T01:16:54.180Z,99.99
2019-05-18T01:18:02.240Z,99.99
2019-05-18T01:18:54.137Z,99.99
2019-05-18T01:19:54.178Z,99.99
2019-05-18T01:20:54.192Z,99.99
2019-05-18T01:21:54.192Z,99.99
2019-05-18T01:22:54.200Z,99.99
2019-05-18T01:23:54.182Z,99.99
2019-05-18T01:24:54.212Z,99.99
2019-05-18T01:25:54.154Z,99.99
2019-05-18T01:26:54.188Z,99.99
2019-05-18T01:27:54.178Z,99.99
2019-05-18T01:28:54.241Z,99.99
2019-05-18T01:29:54.188Z,99.99
2019-05-18T01:30:54.147Z,99.99
2019-05-18T01:31:54.201Z,99.99
2019-05-18T01:32:54.231Z,99.99
2019-05-18T01:33:54.193Z,99.99
2019-05-18T01:34:54.194Z,99.99
2019-05-18T01:35:54.223Z,99.99
2019-05-18T01:36:54.202Z,99.99
2019-05-18T01:37:54.188Z,99.99
2019-05-18T01:38:54.235Z,99.99
2019-05-18T01:39:54.185Z,99.99
2019-05-18T01:41:10.036Z,99.99
2019-05-18T01:42:09.995Z,99.99
2019-05-18T01:43:09.989Z,99.99
2019-05-18T01:44:09.991Z,99.99
2019-05-18T01:45:19.361Z,99.99
2019-05-18T01:46:10.009Z,99.99
2019-05-18T01:47:09.973Z,99.99
2019-05-18T01:48:16.474Z,99.99
2019-05-18T01:49:09.990Z,99.99
2019-05-18T01:50:10.201Z,99.99
2019-05-18T01:51:09.980Z,99.99
2019-05-18T01:52:09.985Z,99.99
2019-05-18T01:53:09.992Z,99.99
2019-05-18T01:54:09.999Z,99.99
2019-05-18T01:55:10.006Z,99.99
2019-05-18T01:56:09.998Z,99.99
2019-05-18T01:57:10.003Z,99.99
2019-05-18T01:58:10.024Z,99.99
2019-05-18T01:59:10.032Z,99.99
2019-05-18T02:00:10.267Z,99.99
2019-05-18T02:01:09.983Z,99.99
2019-05-18T02:02:10.050Z,99.99
2019-05-18T02:03:10.005Z,99.99
2019-05-18T02:04:09.982Z,99.99
2019-05-18T02:05:10.039Z,99.99
2019-05-18T02:06:19.702Z,99.99
2019-05-18T02:07:10.026Z,99.99
2019-05-18T02:08:10.151Z,99.99
2019-05-18T02:09:10.017Z,99.99
2019-05-18T02:10:10.229Z,99.99
2019-05-18T02:11:10.008Z,99.99
2019-05-18T02:12:10.019Z,99.99
2019-05-18T02:13:10.021Z,99.99
2019-05-18T02:14:10.047Z,99.99
2019-05-18T02:15:10.095Z,99.99
2019-05-18T02:16:10.063Z,99.99
2019-05-18T02:17:10.049Z,99.99
2019-05-18T02:18:10.051Z,99.99
2019-05-18T02:19:10.056Z,99.99
2019-05-18T02:20:10.276Z,99.99
2019-05-18T02:21:10.158Z,99.99
2019-05-18T02:22:10.056Z,99.99
2019-05-18T02:23:10.027Z,99.99
2019-05-18T02:24:10.128Z,99.99
2019-05-18T02:25:10.020Z,99.99
2019-05-18T02:26:10.072Z,99.99
2019-05-18T02:27:10.054Z,99.99
2019-05-18T02:28:10.064Z,99.99
2019-05-18T02:29:10.028Z,99.99
2019-05-18T02:30:10.320Z,99.99
2019-05-18T02:31:10.063Z,99.99
2019-05-18T02:32:10.028Z,99.99
2019-05-18T02:33:10.058Z,99.99
2019-05-18T02:34:10.075Z,99.99
2019-05-18T02:35:10.062Z,99.99
2019-05-18T02:36:10.054Z,99.99
2019-05-18T02:37:10.042Z,99.99
2019-05-18T02:38:10.050Z,99.99
2019-05-18T02:39:10.081Z,99.99
2019-05-18T02:40:11.029Z,99.99
2019-05-18T02:41:10.050Z,99.99
2019-05-18T02:42:10.077Z,99.99
2019-05-18T02:43:10.062Z,99.99
2019-05-18T02:44:10.047Z,99.99
2019-05-18T02:45:10.099Z,99.99
2019-05-18T02:46:10.069Z,99.99
2019-05-18T02:47:10.076Z,99.99
2019-05-18T02:48:10.081Z,99.99
2019-05-18T02:49:10.101Z,99.99
2019-05-18T02:50:10.641Z,99.99
2019-05-18T02:51:14.010Z,99.99
2019-05-18T02:52:10.060Z,99.99
2019-05-18T02:53:10.079Z,99.99
2019-05-18T02:54:10.074Z,99.99
2019-05-18T02:55:10.064Z,99.99
2019-05-18T02:56:10.089Z,99.99
2019-05-18T02:57:10.077Z,99.99
2019-05-18T02:58:10.085Z,99.99
2019-05-18T02:59:10.095Z,99.99
2019-05-18T03:00:10.334Z,99.99
2019-05-18T03:01:10.079Z,99.99
2019-05-18T03:02:10.123Z,99.99
2019-05-18T03:03:10.078Z,99.99
2019-05-18T03:04:10.103Z,99.99
2019-05-18T03:05:10.093Z,99.99
2019-05-18T03:06:10.106Z,99.99
2019-05-18T03:07:10.118Z,99.99
2019-05-18T03:08:10.089Z,99.99
2019-05-18T03:09:10.077Z,99.99
2019-05-18T03:10:10.362Z,99.99
2019-05-18T03:11:10.108Z,99.99
2019-05-18T03:12:10.113Z,99.99
2019-05-18T03:13:10.126Z,99.99
2019-05-18T03:14:10.180Z,99.99
2019-05-18T03:15:10.114Z,99.99
2019-05-18T03:16:10.127Z,99.99
2019-05-18T03:17:10.113Z,99.99
2019-05-18T03:18:10.110Z,99.99
2019-05-18T03:19:11.836Z,99.99
2019-05-18T03:20:10.369Z,99.99
2019-05-18T03:21:10.114Z,99.99
2019-05-18T03:22:10.103Z,99.99
2019-05-18T03:23:10.105Z,99.99
2019-05-18T03:24:10.114Z,99.99
2019-05-18T03:25:10.143Z,99.99
2019-05-18T03:26:10.170Z,99.99
2019-05-18T03:27:10.272Z,99.99
2019-05-18T03:28:10.123Z,99.99
2019-05-18T03:29:10.140Z,99.99
2019-05-18T03:30:10.438Z,99.99
2019-05-18T03:31:10.465Z,99.99
2019-05-18T03:32:10.183Z,99.99
2019-05-18T03:33:10.169Z,99.99
2019-05-18T03:34:10.158Z,99.99
2019-05-18T03:35:10.184Z,99.99
2019-05-18T03:36:10.234Z,99.99
2019-05-18T03:37:10.164Z,99.99
2019-05-18T03:41:39.531Z,99.99
2019-05-18T03:42:39.537Z,99.99
2019-05-18T03:43:39.524Z,99.99
2019-05-18T03:44:39.528Z,99.99
2019-05-18T03:45:39.592Z,99.99
2019-05-18T03:46:39.629Z,99.99
2019-05-18T03:47:39.597Z,99.99
2019-05-18T03:48:39.513Z,99.99
2019-05-18T03:49:39.541Z,99.99
2019-05-18T03:50:39.558Z,99.99
2019-05-18T03:51:39.543Z,99.99
2019-05-18T03:52:39.525Z,99.99
2019-05-18T03:53:39.557Z,99.99
2019-05-18T03:54:39.575Z,99.99
2019-05-18T03:55:39.603Z,99.99
2019-05-18T03:56:39.549Z,99.99
2019-05-18T03:57:39.536Z,99.99
2019-05-18T03:58:39.579Z,99.99
2019-05-18T03:59:39.544Z,99.99
2019-05-18T04:00:39.561Z,99.99
2019-05-18T04:01:39.559Z,99.99
2019-05-18T04:02:39.587Z,99.99
2019-05-18T04:03:39.570Z,99.99
2019-05-18T04:04:39.595Z,99.99
2019-05-18T04:05:39.565Z,99.99
2019-05-18T04:06:39.576Z,99.99
2019-05-18T04:07:39.579Z,99.99
2019-05-18T04:08:39.550Z,99.99
2019-05-18T04:09:39.549Z,99.99
2019-05-18T04:10:39.568Z,99.99
2019-05-18T04:11:39.585Z,99.99
2019-05-18T04:12:39.597Z,99.99
2019-05-18T04:13:39.597Z,99.99
2019-05-18T04:14:39.612Z,99.99
2019-05-18T04:15:39.580Z,99.99
2019-05-18T04:16:39.576Z,99.99
2019-05-18T04:17:39.581Z,99.99
2019-05-18T04:18:39.589Z,99.99
2019-05-18T04:19:49.353Z,99.99
2019-05-18T04:20:39.620Z,99.99
2019-05-18T04:21:39.657Z,99.99
2019-05-18T04:22:39.579Z,99.99
2019-05-18T04:23:39.600Z,99.99
2019-05-18T04:24:39.587Z,99.99
2019-05-18T04:25:43.432Z,99.99
2019-05-18T04:26:39.668Z,99.99
2019-05-18T04:27:39.570Z,99.99
2019-05-18T04:28:39.576Z,99.99
2019-05-18T04:29:39.607Z,99.99
2019-05-18T04:30:39.610Z,99.99
2019-05-18T04:31:39.620Z,99.99
2019-05-18T04:32:39.620Z,99.99
2019-05-18T04:33:39.609Z,99.99
2019-05-18T04:34:39.621Z,99.99
2019-05-18T04:35:39.602Z,99.99
2019-05-18T04:36:39.901Z,99.99
2019-05-18T04:37:39.674Z,99.99
2019-05-18T04:38:39.697Z,99.99
2019-05-18T04:39:39.708Z,99.99
2019-05-18T04:40:39.671Z,99.99
2019-05-18T04:41:39.722Z,99.99
2019-05-18T04:42:39.928Z,99.99
2019-05-18T04:43:39.710Z,99.99
2019-05-18T04:44:39.673Z,99.99
2019-05-18T04:45:39.666Z,99.99
2019-05-18T04:46:39.670Z,99.99
2019-05-18T04:47:39.736Z,99.99
2019-05-18T04:48:39.649Z,99.99
2019-05-18T04:49:39.624Z,99.99
2019-05-18T04:50:39.617Z,99.99
2019-05-18T04:51:39.659Z,99.99
2019-05-18T04:52:39.645Z,99.99
2019-05-18T04:53:39.629Z,99.99
2019-05-18T04:54:39.638Z,99.99
2019-05-18T04:55:39.650Z,99.99
2019-05-18T04:56:42.780Z,99.99
2019-05-18T04:57:39.721Z,99.99
2019-05-18T04:58:39.643Z,99.99
2019-05-18T04:59:39.656Z,99.99
2019-05-18T05:00:39.677Z,99.99
2019-05-18T05:01:39.916Z,99.99
2019-05-18T05:02:39.674Z,99.99
2019-05-18T05:03:40.176Z,99.99
2019-05-18T05:04:39.683Z,99.99
2019-05-18T05:05:39.674Z,99.99
2019-05-18T05:06:39.694Z,99.99
2019-05-18T05:07:39.660Z,99.99
2019-05-18T05:08:39.667Z,99.99
2019-05-18T05:09:39.711Z,99.99
2019-05-18T05:10:39.725Z,99.99
2019-05-18T05:11:39.955Z,99.99
2019-05-18T05:12:39.757Z,99.99
2019-05-18T05:13:39.681Z,99.99
2019-05-18T05:14:39.664Z,99.99
2019-05-18T05:15:39.690Z,99.99
2019-05-18T05:16:39.697Z,99.99
2019-05-18T05:17:40.037Z,99.99
2019-05-18T05:18:39.733Z,99.99
2019-05-18T05:19:39.681Z,99.99
2019-05-18T05:20:39.787Z,99.99
2019-05-18T05:21:39.697Z,99.99
2019-05-18T05:22:39.700Z,99.99
2019-05-18T05:23:39.685Z,99.99
2019-05-18T05:24:39.695Z,99.99
2019-05-18T05:25:39.697Z,99.99
2019-05-18T05:26:42.143Z,99.99
2019-05-18T05:27:39.678Z,99.99
2019-05-18T05:28:39.737Z,99.99
2019-05-18T05:29:39.748Z,99.99
2019-05-18T05:30:39.708Z,99.99
2019-05-18T05:31:39.719Z,99.99
2019-05-18T05:32:39.701Z,99.99
2019-05-18T05:33:39.712Z,99.99
2019-05-18T05:34:39.721Z,99.99
2019-05-18T05:35:40.502Z,99.99
2019-05-18T05:36:47.941Z,99.99
2019-05-18T05:37:39.886Z,99.99
2019-05-18T05:38:39.707Z,99.99
2019-05-18T05:39:39.712Z,99.99
2019-05-18T05:40:39.692Z,99.99
2019-05-18T05:41:39.725Z,99.99
2019-05-18T05:42:39.704Z,99.99
2019-05-18T05:43:39.777Z,99.99
2019-05-18T05:44:39.747Z,99.99
2019-05-18T05:45:39.724Z,99.99
2019-05-18T05:46:40.164Z,99.99
2019-05-18T05:47:39.718Z,99.99
2019-05-18T05:48:39.767Z,99.99
2019-05-18T05:49:39.739Z,99.99
2019-05-18T05:50:39.744Z,99.99
2019-05-18T05:51:39.732Z,99.99
2019-05-18T05:52:39.762Z,99.99
2019-05-18T05:53:39.777Z,99.99
2019-05-18T05:54:39.767Z,99.99
2019-05-18T05:55:39.747Z,99.99
2019-05-18T05:56:39.742Z,99.99
2019-05-18T05:57:39.763Z,99.99
2019-05-18T05:58:39.772Z,99.99
2019-05-18T05:59:39.763Z,99.99
2019-05-18T06:00:39.807Z,99.99
2019-05-18T06:01:39.816Z,99.99
2019-05-18T06:02:39.822Z,99.99
2019-05-18T06:03:39.807Z,99.99
2019-05-18T06:04:39.749Z,99.99
2019-05-18T06:05:39.797Z,99.99
2019-05-18T06:06:43.383Z,99.99
2019-05-18T06:07:39.763Z,99.99
2019-05-18T06:08:39.772Z,99.99
2019-05-18T06:09:39.779Z,99.99
2019-05-18T06:10:39.800Z,99.99
2019-05-18T06:11:39.815Z,99.99
2019-05-18T06:12:39.782Z,99.99
2019-05-18T06:13:39.925Z,99.99
2019-05-18T06:14:39.786Z,99.99
2019-05-18T06:15:39.896Z,99.99
2019-05-18T06:16:39.783Z,99.99
2019-05-18T06:17:39.809Z,99.99
2019-05-18T06:18:39.776Z,99.99
2019-05-18T06:19:39.825Z,99.99
2019-05-18T06:20:53.652Z,99.99
2019-05-18T06:21:39.835Z,99.99
2019-05-18T06:22:39.798Z,99.99
2019-05-18T06:23:39.976Z,99.99
2019-05-18T06:24:39.799Z,99.19
2019-05-18T06:25:40.420Z,99.19
2019-05-18T06:26:39.808Z,98.71
2019-05-18T06:27:39.798Z,96.89
2019-05-18T06:28:39.825Z,96.66
2019-05-18T06:29:39.770Z,95.41
2019-05-18T06:30:39.865Z,94.35
2019-05-18T06:31:39.784Z,94.4
2019-05-18T06:32:39.808Z,92.15
2019-05-18T06:33:39.794Z,90.47
2019-05-18T06:34:39.826Z,90.42
2019-05-18T06:35:39.848Z,90.17
2019-05-18T06:36:50.654Z,90.46
2019-05-18T06:37:39.829Z,89.26
2019-05-18T06:38:39.953Z,88.35
2019-05-18T06:39:39.819Z,87.19
2019-05-18T06:40:39.931Z,87.1
2019-05-18T06:41:39.789Z,85.8
2019-05-18T06:42:39.841Z,85.41
2019-05-18T06:43:39.810Z,85.46
2019-05-18T06:44:39.818Z,85.17
2019-05-18T06:45:39.842Z,84.11
2019-05-18T06:46:39.828Z,83.63
2019-05-18T06:47:39.850Z,83.83
2019-05-18T06:48:39.843Z,83.69
2019-05-18T06:49:39.864Z,83.83
2019-05-18T06:50:39.854Z,82.76
2019-05-18T06:51:39.841Z,83.67
2019-05-18T06:52:39.827Z,82.81
2019-05-18T06:53:39.944Z,83.4
2019-05-18T06:54:39.836Z,84.01
2019-05-18T06:55:39.947Z,84.3
2019-05-18T06:56:39.809Z,84.94
2019-05-18T06:57:39.836Z,83.73
2019-05-18T06:58:39.844Z,83.34
2019-05-18T06:59:39.895Z,83.86
2019-05-18T07:00:39.898Z,82.9
2019-05-18T07:01:39.829Z,82.46
2019-05-18T07:02:39.852Z,82.85
2019-05-18T07:03:39.875Z,81.54
2019-05-18T07:04:39.985Z,82.85
2019-05-18T07:05:40.157Z,82.81
2019-05-18T07:06:50.254Z,83
2019-05-18T07:07:39.859Z,82.9
2019-05-18T07:08:39.904Z,82.32
2019-05-18T07:09:39.871Z,80.83
2019-05-18T07:10:39.921Z,80.29
2019-05-18T07:11:39.842Z,80.58
2019-05-18T07:12:39.893Z,81.37
2019-05-18T07:13:39.863Z,81.12
2019-05-18T07:14:39.883Z,81.88
2019-05-18T07:15:39.895Z,81.5
2019-05-18T07:16:40.250Z,81.4
2019-05-18T07:17:39.865Z,81.98
2019-05-18T07:18:39.876Z,82.56
2019-05-18T07:19:39.859Z,81.83
2019-05-18T07:20:39.944Z,80.58
2019-05-18T07:21:39.872Z,80.87
2019-05-18T07:22:39.922Z,80.58
2019-05-18T07:23:39.866Z,80
2019-05-18T07:24:39.955Z,79.13
2019-05-18T07:25:39.886Z,79.08
2019-05-18T07:26:39.866Z,78.59
2019-05-18T07:27:39.912Z,78.69
2019-05-18T07:28:39.894Z,78.88
2019-05-18T07:29:39.904Z,78.79
2019-05-18T07:30:39.997Z,78.5
2019-05-18T07:31:39.894Z,79.11
2019-05-18T07:32:39.927Z,78.06
2019-05-18T07:33:39.910Z,77.58
2019-05-18T07:34:39.894Z,77.58
2019-05-18T07:35:39.945Z,78.44
2019-05-18T07:36:39.949Z,77.67
2019-05-18T07:37:39.934Z,78.44
2019-05-18T07:38:39.915Z,79.43
2019-05-18T07:39:39.910Z,78.63
2019-05-18T07:40:39.952Z,78.92
2019-05-18T07:41:48.974Z,78.83
2019-05-18T07:42:39.944Z,79.31
2019-05-18T07:43:39.956Z,79.61
2019-05-18T07:44:39.940Z,78.88
2019-05-18T07:45:39.909Z,77.48
2019-05-18T07:46:39.930Z,78.15
2019-05-18T07:47:39.939Z,77.67
2019-05-18T07:48:39.947Z,78.48
2019-05-18T07:49:39.928Z,77.03
2019-05-18T07:50:40.010Z,76.75
2019-05-18T07:51:40.166Z,76.45
2019-05-18T07:52:39.952Z,76.45
2019-05-18T07:53:39.937Z,77.19
2019-05-18T07:54:39.960Z,77.03
2019-05-18T07:55:39.972Z,76.26
2019-05-18T07:56:39.959Z,76.61
2019-05-18T07:57:39.963Z,77.71
2019-05-18T07:58:39.947Z,78.63
2019-05-18T07:59:39.961Z,77.33
2019-05-18T08:00:39.985Z,77.61
2019-05-18T08:01:40.033Z,76.51
2019-05-18T08:02:39.955Z,76.55
2019-05-18T08:03:40.059Z,75.78
2019-05-18T08:04:42.484Z,75.68
2019-05-18T08:05:39.953Z,75.05
2019-05-18T08:06:39.959Z,74.37
2019-05-18T08:07:40.694Z,74.57
2019-05-18T08:08:39.981Z,74.6
2019-05-18T08:09:39.969Z,74.21
2019-05-18T08:10:42.988Z,74.51
2019-05-18T08:11:40.078Z,73.63
2019-05-18T08:12:40.041Z,73.73
2019-05-18T08:13:39.986Z,74.64
2019-05-18T08:14:39.980Z,74.12
2019-05-18T08:15:40.000Z,73.54
2019-05-18T08:16:39.992Z,73.86
2019-05-18T08:17:39.978Z,73.58
2019-05-18T08:18:39.959Z,73.86
2019-05-18T08:19:39.974Z,73.93
2019-05-18T08:20:39.994Z,74.79
2019-05-18T08:21:54.785Z,75.43
2019-05-18T08:22:39.996Z,74.35
2019-05-18T08:23:39.992Z,74.16
2019-05-18T08:24:39.998Z,74.06
2019-05-18T08:25:40.013Z,73.48
2019-05-18T08:26:40.022Z,72.26
2019-05-18T08:34:06.866Z,71.87
2019-05-18T08:34:17.924Z,71.72
2019-05-18T08:35:17.875Z,71.81
2019-05-18T08:36:17.884Z,70.65
2019-05-18T08:37:17.902Z,70.65
2019-05-18T08:38:17.860Z,70.36
2019-05-18T08:39:17.934Z,70.56
2019-05-18T08:40:17.873Z,70.84
2019-05-18T08:41:17.902Z,70.3
2019-05-18T08:42:17.889Z,70.2
2019-05-18T08:43:17.895Z,70.78
2019-05-18T08:44:17.857Z,69.62
2019-05-18T08:45:17.904Z,69.1
2019-05-18T08:46:17.872Z,68.98
2019-05-18T08:47:17.900Z,70.26
2019-05-18T08:48:17.907Z,70.75
2019-05-18T08:49:17.917Z,69.88
2019-05-18T08:50:18.024Z,70.1
2019-05-18T08:51:18.050Z,70.26
2019-05-18T08:52:17.915Z,70.78
2019-05-18T08:53:17.901Z,70.2
2019-05-18T08:54:17.946Z,69.04
2019-05-18T08:55:17.912Z,70.72
2019-05-18T08:56:17.902Z,69.53
2019-05-18T08:57:17.936Z,71.36
2019-05-18T08:58:17.914Z,69.53
2019-05-18T08:59:17.958Z,68.4
2019-05-18T09:00:17.983Z,68.01
2019-05-18T09:01:17.939Z,68.98
2019-05-18T09:02:17.897Z,70.04
2019-05-18T09:03:17.945Z,70.53
2019-05-18T09:04:17.930Z,70.5
2019-05-18T09:05:17.938Z,68.66
2019-05-18T09:06:17.924Z,69.88
2019-05-18T09:07:17.942Z,70.46
2019-05-18T09:08:17.920Z,70.84
2019-05-18T09:09:17.917Z,70.26
2019-05-18T09:10:17.967Z,70.68
2019-05-18T09:11:17.932Z,70.59
2019-05-18T09:12:17.936Z,70.3
2019-05-18T09:13:17.927Z,70.78
2019-05-18T09:14:17.976Z,70.88
2019-05-18T09:15:17.963Z,70.82
2019-05-18T09:16:17.951Z,70.5
2019-05-18T09:17:17.927Z,70.98
2019-05-18T09:18:17.966Z,71.56
2019-05-18T09:19:17.941Z,72.2
2019-05-18T09:20:17.949Z,71.81
2019-05-18T09:21:33.663Z,72.2
2019-05-18T09:22:33.652Z,71.23
2019-05-18T09:23:33.662Z,70.52
2019-05-18T09:24:33.691Z,70.3
2019-05-18T09:26:51.886Z,69.14
2019-05-18T09:27:51.873Z,70.43
2019-05-18T09:28:51.879Z,71.08
2019-05-18T09:29:51.890Z,70.24
2019-05-18T09:30:51.871Z,70.86
2019-05-18T09:31:51.885Z,69.85
2019-05-18T09:32:51.861Z,70.14
2019-05-18T09:33:51.877Z,68.98
2019-05-18T09:34:51.880Z,69.53
2019-05-18T09:37:09.658Z,69.24
2019-05-18T09:38:02.033Z,69.11
2019-05-18T09:39:02.118Z,69.21
2019-05-18T09:40:01.989Z,69.59
2019-05-18T09:41:02.040Z,69.63
2019-05-18T09:42:02.128Z,68.89
2019-05-18T09:43:01.995Z,68.56
2019-05-18T09:44:02.083Z,68.27
2019-05-18T09:45:02.001Z,66.92
2019-05-18T09:46:02.060Z,67.95
2019-05-18T09:47:01.986Z,68.08
2019-05-18T09:48:02.033Z,68.76
2019-05-18T09:49:02.220Z,67.98
2019-05-18T09:50:02.026Z,67.63
2019-05-18T09:51:02.040Z,67.34
2019-05-18T09:52:02.420Z,66.75
2019-05-18T09:53:02.082Z,66.92
2019-05-18T09:54:02.004Z,67.08
2019-05-18T09:55:02.175Z,67.08
2019-05-18T09:56:02.125Z,67.02
2019-05-18T09:57:02.030Z,66.63
2019-05-18T09:58:02.068Z,65.47
2019-05-18T09:59:02.103Z,64.72
2019-05-18T10:00:02.044Z,65.3
2019-05-18T10:01:02.059Z,64.92
2019-05-18T10:02:02.038Z,63.88
2019-05-18T10:03:02.031Z,63.98
2019-05-18T10:04:02.067Z,64.17
2019-05-18T10:05:02.202Z,65.17
2019-05-18T10:06:02.111Z,65.69
2019-05-18T10:07:09.567Z,65.05
2019-05-18T10:08:02.220Z,66.27
2019-05-18T10:09:02.212Z,66.37
2019-05-18T10:10:02.184Z,66.4
2019-05-18T10:11:02.217Z,65.4
2019-05-18T10:12:02.135Z,65.01
2019-05-18T10:13:02.027Z,65.43
2019-05-18T10:14:02.155Z,65.08
2019-05-18T10:15:02.462Z,64.56
2019-05-18T10:16:02.168Z,64.59
2019-05-18T10:17:02.092Z,64.78
2019-05-18T10:18:02.038Z,64.82
2019-05-18T10:19:02.075Z,62.82
2019-05-18T10:20:02.077Z,61.65
2019-05-18T10:21:02.077Z,61.49
2019-05-18T10:22:02.129Z,62.26
2019-05-18T10:23:15.120Z,62.91
2019-05-18T10:24:02.284Z,63.13
2019-05-18T10:25:02.174Z,63.72
2019-05-18T10:26:02.194Z,64.5
2019-05-18T10:27:02.107Z,63.85
2019-05-18T10:28:02.150Z,63.85
2019-05-18T10:29:02.059Z,64.27
2019-05-18T10:30:02.150Z,63.13
2019-05-18T10:31:02.150Z,63.56
2019-05-18T10:32:02.091Z,63.49
2019-05-18T10:33:02.238Z,63.17
2019-05-18T10:34:02.085Z,61.22
2019-05-18T10:35:02.083Z,61.45
2019-05-18T10:36:02.103Z,61.42
2019-05-18T10:37:12.447Z,61.07
2019-05-18T10:42:20.573Z,62.71
2019-05-18T10:42:31.588Z,62.13
2019-05-18T10:43:31.698Z,62.95
2019-05-18T10:44:31.559Z,63.4
2019-05-18T10:45:31.717Z,62.59
2019-05-18T10:46:31.551Z,63.72
2019-05-18T10:47:31.587Z,64.11
2019-05-18T10:48:31.549Z,61.52
2019-05-18T10:49:31.570Z,62.78
2019-05-18T10:50:31.563Z,61.61
2019-05-18T10:51:31.529Z,61.81
2019-05-18T10:52:31.969Z,61.71
2019-05-18T10:53:31.863Z,60.94
2019-05-18T10:54:31.697Z,60.45
2019-05-18T10:55:31.661Z,60.94
2019-05-18T10:56:33.890Z,61.13
2019-05-18T10:57:31.603Z,62.55
2019-05-18T10:58:31.587Z,62.65
2019-05-18T10:59:31.582Z,62.78
2019-05-18T11:00:31.605Z,62.88
2019-05-18T11:01:31.575Z,61.55
2019-05-18T11:02:31.577Z,62.1
2019-05-18T11:03:32.180Z,61.16
2019-05-18T11:04:31.570Z,61.16
2019-05-18T11:05:31.598Z,60.77
2019-05-18T11:06:31.602Z,61.29
2019-05-18T11:07:31.821Z,61.45
2019-05-18T11:08:31.600Z,61.25
2019-05-18T11:09:31.583Z,60.61
2019-05-18T11:10:31.618Z,60.48
2019-05-18T11:11:31.579Z,61.38
2019-05-18T11:12:31.591Z,61.87
2019-05-18T11:13:31.620Z,62.36
2019-05-18T11:14:31.607Z,61.32
2019-05-18T11:15:31.605Z,61.25
2019-05-18T11:16:31.623Z,60.87
2019-05-18T11:17:31.583Z,61.38
2019-05-18T11:18:33.062Z,61.48
2019-05-18T11:23:01.842Z,62.59
2019-05-18T11:24:01.871Z,61.74
2019-05-18T11:25:01.917Z,60.64
2019-05-18T11:26:01.858Z,60.44
2019-05-18T11:27:01.857Z,60.54
2019-05-18T11:28:01.940Z,59.89
2019-05-18T11:29:01.868Z,59.5
2019-05-18T11:30:01.973Z,59.18
2019-05-18T11:31:01.855Z,58.82
2019-05-18T11:32:01.867Z,59.21
2019-05-18T11:33:01.930Z,60.38
2019-05-18T11:34:01.859Z,60.12
2019-05-18T11:35:02.042Z,59.34
2019-05-18T11:36:01.872Z,59.92
2019-05-18T11:38:01.871Z,61.61
2019-05-18T11:39:01.929Z,62.01
2019-05-18T11:40:01.899Z,62.29
2019-05-18T11:41:01.858Z,61.52
2019-05-18T11:42:01.965Z,61.42
2019-05-18T11:43:01.866Z,60.28
2019-05-18T11:47:29.993Z,61.91
2019-05-18T11:48:29.962Z,59.74
2019-05-18T11:49:31.897Z,59.92
2019-05-18T11:50:29.948Z,59.74
2019-05-18T11:51:29.938Z,60.41
2019-05-18T11:52:30.177Z,61.19
2019-05-18T11:53:29.970Z,61.25
2019-05-18T11:54:29.955Z,61.61
2019-05-18T11:55:29.962Z,60.06
2019-05-18T11:56:29.945Z,60.38
2019-05-18T11:57:29.958Z,61.42
2019-05-18T11:58:30.028Z,61.68
2019-05-18T11:59:29.968Z,61.58
2019-05-18T12:00:29.975Z,61.82
2019-05-18T12:01:30.009Z,62.23
2019-05-18T12:02:29.949Z,63.33
2019-05-18T12:03:29.966Z,61.29
2019-05-18T12:04:30.026Z,60.35
2019-05-18T12:05:29.950Z,59.97
2019-05-18T12:06:30.000Z,59.51
2019-05-18T12:07:30.003Z,59.12
2019-05-18T12:08:30.053Z,58.22
2019-05-18T12:09:30.078Z,58.22
2019-05-18T12:10:29.984Z,58.25
2019-05-18T12:11:29.989Z,58.64
2019-05-18T12:12:30.031Z,59.09
2019-05-18T12:13:30.000Z,59.31
2019-05-18T12:14:30.008Z,59.77
2019-05-18T12:15:30.036Z,59.05
2019-05-18T12:16:30.033Z,58.79
2019-05-18T12:17:29.990Z,58.69
2019-05-18T12:18:30.044Z,59.28
2019-05-18T12:19:29.983Z,59.64
2019-05-18T12:20:29.991Z,58.98
2019-05-18T12:21:30.017Z,59.64
2019-05-18T12:22:30.044Z,59.74
2019-05-18T12:23:30.049Z,59.58
2019-05-18T12:24:30.023Z,59.58
2019-05-18T12:25:30.029Z,59.51
2019-05-18T12:26:30.038Z,58.83
2019-05-18T12:27:30.054Z,59
2019-05-18T12:28:31.521Z,59.31
2019-05-18T12:29:30.067Z,58.34
2019-05-18T12:30:30.073Z,58.34
2019-05-18T12:31:30.103Z,58.86
2019-05-18T12:32:30.064Z,60.38
2019-05-18T12:33:30.010Z,60.64
2019-05-18T12:34:30.412Z,59.64
2019-05-18T12:35:30.031Z,59.54
2019-05-18T12:36:30.055Z,60.05
2019-05-18T12:37:30.075Z,59.54
2019-05-18T12:38:30.049Z,59.47
2019-05-18T12:39:30.034Z,58.69
2019-05-18T12:40:30.053Z,58.64
2019-05-18T12:41:30.066Z,59.58
2019-05-18T12:42:30.050Z,59.48
2019-05-18T12:43:30.067Z,59.48
2019-05-18T12:44:30.025Z,59.41
2019-05-18T12:45:30.081Z,60.38
2019-05-18T12:46:30.086Z,59.12
2019-05-18T12:47:30.088Z,58.98
2019-05-18T12:48:30.100Z,59.64
2019-05-18T12:49:30.055Z,59.41
2019-05-18T12:50:30.083Z,59.7
2019-05-18T12:51:30.068Z,61.04
2019-05-18T12:56:46.570Z,59.8
2019-05-18T12:56:57.626Z,59.31
2019-05-18T12:57:57.630Z,59.8
2019-05-18T12:58:57.597Z,59.41
2019-05-18T12:59:57.666Z,58.54
2019-05-18T13:00:57.633Z,59.28
2019-05-18T13:01:57.678Z,59.34
2019-05-18T13:02:57.638Z,58.67
2019-05-18T13:03:57.611Z,58.37
2019-05-18T13:04:57.629Z,57.57
2019-05-18T13:05:57.625Z,57.08
2019-05-18T13:06:57.635Z,57.76
2019-05-18T13:07:57.648Z,57.08
2019-05-18T13:08:57.656Z,57.18
2019-05-18T13:09:57.668Z,56.21
2019-05-18T13:10:57.856Z,57.4
2019-05-18T13:11:57.653Z,57.86
2019-05-18T13:12:57.622Z,58.34
2019-05-18T13:13:57.668Z,58.8
2019-05-18T13:14:57.695Z,59.55
2019-05-18T13:15:57.637Z,59.45
2019-05-18T13:16:57.671Z,60.13
2019-05-18T13:17:57.650Z,60.32
2019-05-18T13:18:57.657Z,59.64
2019-05-18T13:19:57.667Z,59.74
2019-05-18T13:20:57.629Z,59.55
2019-05-18T13:21:57.658Z,60.49
2019-05-18T13:22:57.646Z,60.3
2019-05-18T13:23:57.688Z,61.17
2019-05-18T13:24:57.657Z,60.17
2019-05-18T13:25:57.646Z,60.27
2019-05-18T13:26:57.669Z,61.21
2019-05-18T13:27:57.695Z,61.14
2019-05-18T13:28:57.683Z,61.3